Gallatin, Tennessee
Current Conditions -  °F | °C
As of 7:53 AM on Sunday 21 Dec 2014 (Local Time) from KBNA Reporting Station
Light Fog Light Fog  
Wind Chill: 27°   Ceiling: Unl
Heat Index: 27°   Visibility: 5mi
Dew Point: 26°   Wind: 0mph
Humidity: 96%   Direction: NA
Pressure: 30.25"   Gusts: NA
Location:  36.39°N, 86.45°W
Report Text: KBNA 211353Z 00000KT 5SM BCFG BR FEW150 M03/M03 A3025 RMK AO2 SLP248 T10281033
Loading
Personal Weather Stations






























Interactive Weather Map New forecast layout! Learn more

10-Day Weather Forecast

Advertisements
Track Severe Weather on mobile